<?xml version="1.0" encoding="UTF-8" standalone="no" ?>
<gpx xmlns="http://www.topografix.com/GPX/1/1" xmlns:xsi="http://www.w3.org/2001/XMLSchema-instance" xsi:schemaLocation="http://www.topografix.com/GPX/1/1 http://www.topografix.com/GPX/1/1/gpx.xsd" version="1.1" creator="VisuGPX - https://www.visugpx.com">
  <metadata>
    <name>Le moulin Fossard.</name>
    <desc><![CDATA[Une sortie VTT accessible à tous, sans difficulté. Pratiquement que des chemins et aucun portage.]]></desc>
  </metadata>
  <trk>
    <name><![CDATA[Le moulin fossard.]]></name>
    <trkseg>
      <trkpt lat="49.142" lon="-0.63222">
        <ele>78.9654541</ele>
        <time>2008-11-23T07:35:50Z</time>
      </trkpt>
      <trkpt lat="49.14219" lon="-0.63154">
        <ele>76.5621338</ele>
        <time>2008-11-23T07:36:08Z</time>
      </trkpt>
      <trkpt lat="49.14242" lon="-0.63089">
        <ele>75.1202393</ele>
        <time>2008-11-23T07:36:16Z</time>
      </trkpt>
      <trkpt lat="49.14258" lon="-0.63024">
        <ele>73.1976318</ele>
        <time>2008-11-23T07:36:22Z</time>
      </trkpt>
      <trkpt lat="49.14278" lon="-0.62958">
        <ele>72.7169189</ele>
        <time>2008-11-23T07:36:29Z</time>
      </trkpt>
      <trkpt lat="49.14318" lon="-0.62957">
        <ele>71.7554932</ele>
        <time>2008-11-23T07:36:39Z</time>
      </trkpt>
      <trkpt lat="49.14359" lon="-0.62994">
        <ele>72.2362061</ele>
        <time>2008-11-23T07:36:49Z</time>
      </trkpt>
      <trkpt lat="49.14399" lon="-0.63037">
        <ele>71.2749023</ele>
        <time>2008-11-23T07:36:59Z</time>
      </trkpt>
      <trkpt lat="49.14431" lon="-0.62989">
        <ele>74.1588135</ele>
        <time>2008-11-23T07:37:10Z</time>
      </trkpt>
      <trkpt lat="49.14471" lon="-0.62947">
        <ele>76.5621338</ele>
        <time>2008-11-23T07:37:21Z</time>
      </trkpt>
      <trkpt lat="49.14508" lon="-0.62903">
        <ele>76.5621338</ele>
        <time>2008-11-23T07:37:31Z</time>
      </trkpt>
      <trkpt lat="49.14536" lon="-0.62848">
        <ele>77.0428467</ele>
        <time>2008-11-23T07:37:40Z</time>
      </trkpt>
      <trkpt lat="49.14556" lon="-0.62776">
        <ele>74.6395264</ele>
        <time>2008-11-23T07:37:49Z</time>
      </trkpt>
      <trkpt lat="49.1457" lon="-0.62709">
        <ele>71.7554932</ele>
        <time>2008-11-23T07:37:57Z</time>
      </trkpt>
      <trkpt lat="49.14603" lon="-0.62682">
        <ele>72.2362061</ele>
        <time>2008-11-23T07:38:08Z</time>
      </trkpt>
      <trkpt lat="49.14652" lon="-0.62677">
        <ele>69.3522949</ele>
        <time>2008-11-23T07:38:18Z</time>
      </trkpt>
      <trkpt lat="49.14699" lon="-0.62693">
        <ele>66.9489746</ele>
        <time>2008-11-23T07:38:27Z</time>
      </trkpt>
      <trkpt lat="49.14738" lon="-0.6274">
        <ele>66.4682617</ele>
        <time>2008-11-23T07:38:36Z</time>
      </trkpt>
      <trkpt lat="49.14772" lon="-0.62791">
        <ele>64.5456543</ele>
        <time>2008-11-23T07:38:45Z</time>
      </trkpt>
      <trkpt lat="49.1482" lon="-0.62779">
        <ele>66.9489746</ele>
        <time>2008-11-23T07:38:55Z</time>
      </trkpt>
      <trkpt lat="49.14864" lon="-0.62757">
        <ele>69.3522949</ele>
        <time>2008-11-23T07:39:05Z</time>
      </trkpt>
      <trkpt lat="49.14909" lon="-0.62727">
        <ele>72.7169189</ele>
        <time>2008-11-23T07:39:16Z</time>
      </trkpt>
      <trkpt lat="49.1495" lon="-0.62694">
        <ele>75.6008301</ele>
        <time>2008-11-23T07:39:25Z</time>
      </trkpt>
      <trkpt lat="49.14988" lon="-0.62656">
        <ele>74.6395264</ele>
        <time>2008-11-23T07:39:34Z</time>
      </trkpt>
      <trkpt lat="49.15028" lon="-0.62617">
        <ele>76.0814209</ele>
        <time>2008-11-23T07:39:44Z</time>
      </trkpt>
      <trkpt lat="49.15069" lon="-0.62575">
        <ele>75.6008301</ele>
        <time>2008-11-23T07:39:54Z</time>
      </trkpt>
      <trkpt lat="49.15107" lon="-0.62537">
        <ele>76.0814209</ele>
        <time>2008-11-23T07:40:03Z</time>
      </trkpt>
      <trkpt lat="49.15148" lon="-0.62497">
        <ele>76.5621338</ele>
        <time>2008-11-23T07:40:12Z</time>
      </trkpt>
      <trkpt lat="49.15187" lon="-0.62458">
        <ele>76.0814209</ele>
        <time>2008-11-23T07:40:20Z</time>
      </trkpt>
      <trkpt lat="49.15226" lon="-0.62411">
        <ele>74.6395264</ele>
        <time>2008-11-23T07:40:28Z</time>
      </trkpt>
      <trkpt lat="49.15263" lon="-0.62357">
        <ele>71.7554932</ele>
        <time>2008-11-23T07:40:36Z</time>
      </trkpt>
      <trkpt lat="49.15298" lon="-0.62311">
        <ele>67.9102783</ele>
        <time>2008-11-23T07:40:46Z</time>
      </trkpt>
      <trkpt lat="49.15333" lon="-0.62275">
        <ele>70.7941895</ele>
        <time>2008-11-23T07:41:16Z</time>
      </trkpt>
      <trkpt lat="49.15373" lon="-0.62239">
        <ele>74.1588135</ele>
        <time>2008-11-23T07:41:31Z</time>
      </trkpt>
      <trkpt lat="49.15411" lon="-0.62201">
        <ele>75.6008301</ele>
        <time>2008-11-23T07:41:43Z</time>
      </trkpt>
      <trkpt lat="49.15447" lon="-0.62159">
        <ele>73.6782227</ele>
        <time>2008-11-23T07:41:54Z</time>
      </trkpt>
      <trkpt lat="49.15483" lon="-0.62114">
        <ele>72.7169189</ele>
        <time>2008-11-23T07:42:09Z</time>
      </trkpt>
      <trkpt lat="49.15521" lon="-0.62071">
        <ele>73.6782227</ele>
        <time>2008-11-23T07:42:23Z</time>
      </trkpt>
      <trkpt lat="49.15558" lon="-0.62024">
        <ele>76.0814209</ele>
        <time>2008-11-23T07:42:38Z</time>
      </trkpt>
      <trkpt lat="49.15594" lon="-0.6198">
        <ele>82.810791</ele>
        <time>2008-11-23T07:42:50Z</time>
      </trkpt>
      <trkpt lat="49.15627" lon="-0.61931">
        <ele>81.3687744</ele>
        <time>2008-11-23T07:42:59Z</time>
      </trkpt>
      <trkpt lat="49.15665" lon="-0.61897">
        <ele>68.871582</ele>
        <time>2008-11-23T07:43:07Z</time>
      </trkpt>
      <trkpt lat="49.1571" lon="-0.61875">
        <ele>69.8328857</ele>
        <time>2008-11-23T07:43:19Z</time>
      </trkpt>
      <trkpt lat="49.15746" lon="-0.61831">
        <ele>70.7941895</ele>
        <time>2008-11-23T07:43:34Z</time>
      </trkpt>
      <trkpt lat="49.15783" lon="-0.61783">
        <ele>71.2749023</ele>
        <time>2008-11-23T07:43:47Z</time>
      </trkpt>
      <trkpt lat="49.15822" lon="-0.61738">
        <ele>66.4682617</ele>
        <time>2008-11-23T07:43:57Z</time>
      </trkpt>
      <trkpt lat="49.15863" lon="-0.61704">
        <ele>67.9102783</ele>
        <time>2008-11-23T07:44:07Z</time>
      </trkpt>
      <trkpt lat="49.15907" lon="-0.61695">
        <ele>67.4296875</ele>
        <time>2008-11-23T07:44:20Z</time>
      </trkpt>
      <trkpt lat="49.15953" lon="-0.61688">
        <ele>69.8328857</ele>
        <time>2008-11-23T07:44:38Z</time>
      </trkpt>
      <trkpt lat="49.16" lon="-0.61682">
        <ele>68.3908691</ele>
        <time>2008-11-23T07:44:54Z</time>
      </trkpt>
      <trkpt lat="49.16048" lon="-0.61678">
        <ele>69.3522949</ele>
        <time>2008-11-23T07:45:08Z</time>
      </trkpt>
      <trkpt lat="49.16094" lon="-0.61677">
        <ele>70.7941895</ele>
        <time>2008-11-23T07:45:23Z</time>
      </trkpt>
      <trkpt lat="49.16139" lon="-0.61676">
        <ele>71.7554932</ele>
        <time>2008-11-23T07:45:37Z</time>
      </trkpt>
      <trkpt lat="49.16186" lon="-0.61679">
        <ele>75.1202393</ele>
        <time>2008-11-23T07:45:51Z</time>
      </trkpt>
      <trkpt lat="49.1622" lon="-0.61639">
        <ele>63.1036377</ele>
        <time>2008-11-23T07:46:56Z</time>
      </trkpt>
      <trkpt lat="49.16254" lon="-0.61593">
        <ele>62.142334</ele>
        <time>2008-11-23T07:47:10Z</time>
      </trkpt>
      <trkpt lat="49.16278" lon="-0.61536">
        <ele>60.2197266</ele>
        <time>2008-11-23T07:47:24Z</time>
      </trkpt>
      <trkpt lat="49.16249" lon="-0.61485">
        <ele>62.142334</ele>
        <time>2008-11-23T07:47:37Z</time>
      </trkpt>
      <trkpt lat="49.16261" lon="-0.61418">
        <ele>64.5456543</ele>
        <time>2008-11-23T07:47:50Z</time>
      </trkpt>
      <trkpt lat="49.16301" lon="-0.61416">
        <ele>73.6782227</ele>
        <time>2008-11-23T07:48:06Z</time>
      </trkpt>
      <trkpt lat="49.1635" lon="-0.6143">
        <ele>74.1588135</ele>
        <time>2008-11-23T07:48:19Z</time>
      </trkpt>
      <trkpt lat="49.16396" lon="-0.6144">
        <ele>72.7169189</ele>
        <time>2008-11-23T07:48:28Z</time>
      </trkpt>
      <trkpt lat="49.16443" lon="-0.61443">
        <ele>74.6395264</ele>
        <time>2008-11-23T07:48:39Z</time>
      </trkpt>
      <trkpt lat="49.16489" lon="-0.61434">
        <ele>71.2749023</ele>
        <time>2008-11-23T07:48:48Z</time>
      </trkpt>
      <trkpt lat="49.16535" lon="-0.61422">
        <ele>69.3522949</ele>
        <time>2008-11-23T07:48:56Z</time>
      </trkpt>
      <trkpt lat="49.16582" lon="-0.6141">
        <ele>67.9102783</ele>
        <time>2008-11-23T07:49:05Z</time>
      </trkpt>
      <trkpt lat="49.16628" lon="-0.61392">
        <ele>69.3522949</ele>
        <time>2008-11-23T07:49:15Z</time>
      </trkpt>
      <trkpt lat="49.16674" lon="-0.6138">
        <ele>69.3522949</ele>
        <time>2008-11-23T07:49:25Z</time>
      </trkpt>
      <trkpt lat="49.16709" lon="-0.61407">
        <ele>58.77771</ele>
        <time>2008-11-23T07:50:11Z</time>
      </trkpt>
      <trkpt lat="49.16751" lon="-0.61382">
        <ele>61.6617432</ele>
        <time>2008-11-23T07:50:38Z</time>
      </trkpt>
      <trkpt lat="49.16799" lon="-0.61391">
        <ele>65.9876709</ele>
        <time>2008-11-23T07:50:51Z</time>
      </trkpt>
      <trkpt lat="49.16842" lon="-0.61368">
        <ele>67.9102783</ele>
        <time>2008-11-23T07:51:07Z</time>
      </trkpt>
      <trkpt lat="49.16886" lon="-0.61341">
        <ele>73.6782227</ele>
        <time>2008-11-23T07:51:23Z</time>
      </trkpt>
      <trkpt lat="49.16928" lon="-0.61316">
        <ele>76.5621338</ele>
        <time>2008-11-23T07:51:35Z</time>
      </trkpt>
      <trkpt lat="49.16971" lon="-0.6129">
        <ele>76.0814209</ele>
        <time>2008-11-23T07:51:47Z</time>
      </trkpt>
      <trkpt lat="49.17017" lon="-0.61262">
        <ele>76.0814209</ele>
        <time>2008-11-23T07:51:58Z</time>
      </trkpt>
      <trkpt lat="49.17063" lon="-0.61235">
        <ele>73.1976318</ele>
        <time>2008-11-23T07:52:07Z</time>
      </trkpt>
      <trkpt lat="49.17105" lon="-0.61237">
        <ele>69.8328857</ele>
        <time>2008-11-23T07:52:16Z</time>
      </trkpt>
      <trkpt lat="49.17131" lon="-0.61184">
        <ele>69.3522949</ele>
        <time>2008-11-23T07:52:30Z</time>
      </trkpt>
      <trkpt lat="49.17147" lon="-0.61116">
        <ele>70.3134766</ele>
        <time>2008-11-23T07:52:43Z</time>
      </trkpt>
      <trkpt lat="49.17163" lon="-0.61047">
        <ele>73.1976318</ele>
        <time>2008-11-23T07:52:56Z</time>
      </trkpt>
      <trkpt lat="49.17176" lon="-0.60981">
        <ele>74.6395264</ele>
        <time>2008-11-23T07:53:08Z</time>
      </trkpt>
      <trkpt lat="49.17155" lon="-0.60918">
        <ele>78.9654541</ele>
        <time>2008-11-23T07:53:24Z</time>
      </trkpt>
      <trkpt lat="49.17134" lon="-0.60854">
        <ele>79.9266357</ele>
        <time>2008-11-23T07:53:40Z</time>
      </trkpt>
      <trkpt lat="49.17128" lon="-0.60786">
        <ele>80.4074707</ele>
        <time>2008-11-23T07:53:54Z</time>
      </trkpt>
      <trkpt lat="49.17132" lon="-0.60717">
        <ele>79.9266357</ele>
        <time>2008-11-23T07:54:07Z</time>
      </trkpt>
      <trkpt lat="49.17137" lon="-0.60644">
        <ele>79.4460449</ele>
        <time>2008-11-23T07:54:19Z</time>
      </trkpt>
      <trkpt lat="49.17142" lon="-0.60573">
        <ele>79.4460449</ele>
        <time>2008-11-23T07:54:30Z</time>
      </trkpt>
      <trkpt lat="49.17152" lon="-0.605">
        <ele>79.4460449</ele>
        <time>2008-11-23T07:54:42Z</time>
      </trkpt>
      <trkpt lat="49.17133" lon="-0.60431">
        <ele>80.4074707</ele>
        <time>2008-11-23T07:54:53Z</time>
      </trkpt>
      <trkpt lat="49.17123" lon="-0.60359">
        <ele>79.4460449</ele>
        <time>2008-11-23T07:55:04Z</time>
      </trkpt>
      <trkpt lat="49.1712" lon="-0.60287">
        <ele>80.4074707</ele>
        <time>2008-11-23T07:55:15Z</time>
      </trkpt>
      <trkpt lat="49.1711" lon="-0.60219">
        <ele>80.4074707</ele>
        <time>2008-11-23T07:55:26Z</time>
      </trkpt>
      <trkpt lat="49.17093" lon="-0.60148">
        <ele>80.4074707</ele>
        <time>2008-11-23T07:55:36Z</time>
      </trkpt>
      <trkpt lat="49.17083" lon="-0.60079">
        <ele>81.3687744</ele>
        <time>2008-11-23T07:55:45Z</time>
      </trkpt>
      <trkpt lat="49.17084" lon="-0.6001">
        <ele>80.8881836</ele>
        <time>2008-11-23T07:55:54Z</time>
      </trkpt>
      <trkpt lat="49.17084" lon="-0.59938">
        <ele>80.4074707</ele>
        <time>2008-11-23T07:56:03Z</time>
      </trkpt>
      <trkpt lat="49.17085" lon="-0.59863">
        <ele>80.4074707</ele>
        <time>2008-11-23T07:56:12Z</time>
      </trkpt>
      <trkpt lat="49.1708" lon="-0.59789">
        <ele>79.9266357</ele>
        <time>2008-11-23T07:56:21Z</time>
      </trkpt>
      <trkpt lat="49.1707" lon="-0.59714">
        <ele>79.4460449</ele>
        <time>2008-11-23T07:56:30Z</time>
      </trkpt>
      <trkpt lat="49.1707" lon="-0.59644">
        <ele>78.9654541</ele>
        <time>2008-11-23T07:56:38Z</time>
      </trkpt>
      <trkpt lat="49.17068" lon="-0.59574">
        <ele>78.0040283</ele>
        <time>2008-11-23T07:56:46Z</time>
      </trkpt>
      <trkpt lat="49.17064" lon="-0.59504">
        <ele>77.5234375</ele>
        <time>2008-11-23T07:56:54Z</time>
      </trkpt>
      <trkpt lat="49.17068" lon="-0.59433">
        <ele>77.5234375</ele>
        <time>2008-11-23T07:57:02Z</time>
      </trkpt>
      <trkpt lat="49.17073" lon="-0.59356">
        <ele>78.9654541</ele>
        <time>2008-11-23T07:57:11Z</time>
      </trkpt>
      <trkpt lat="49.1708" lon="-0.59283">
        <ele>80.4074707</ele>
        <time>2008-11-23T07:57:20Z</time>
      </trkpt>
      <trkpt lat="49.17097" lon="-0.59212">
        <ele>80.8881836</ele>
        <time>2008-11-23T07:57:29Z</time>
      </trkpt>
      <trkpt lat="49.17117" lon="-0.59151">
        <ele>81.8493652</ele>
        <time>2008-11-23T07:57:38Z</time>
      </trkpt>
      <trkpt lat="49.17142" lon="-0.59093">
        <ele>82.810791</ele>
        <time>2008-11-23T07:57:49Z</time>
      </trkpt>
      <trkpt lat="49.17169" lon="-0.59037">
        <ele>84.7333984</ele>
        <time>2008-11-23T07:58:02Z</time>
      </trkpt>
      <trkpt lat="49.17191" lon="-0.58976">
        <ele>85.2139893</ele>
        <time>2008-11-23T07:58:15Z</time>
      </trkpt>
      <trkpt lat="49.17204" lon="-0.58907">
        <ele>85.2139893</ele>
        <time>2008-11-23T07:58:28Z</time>
      </trkpt>
      <trkpt lat="49.1721" lon="-0.58835">
        <ele>85.6945801</ele>
        <time>2008-11-23T07:58:40Z</time>
      </trkpt>
      <trkpt lat="49.17242" lon="-0.58781">
        <ele>86.6560059</ele>
        <time>2008-11-23T07:58:52Z</time>
      </trkpt>
      <trkpt lat="49.17277" lon="-0.58732">
        <ele>87.6171875</ele>
        <time>2008-11-23T07:59:03Z</time>
      </trkpt>
      <trkpt lat="49.1731" lon="-0.58683">
        <ele>88.5787354</ele>
        <time>2008-11-23T07:59:14Z</time>
      </trkpt>
      <trkpt lat="49.17321" lon="-0.58718">
        <ele>89.539917</ele>
        <time>2008-11-23T07:59:29Z</time>
      </trkpt>
      <trkpt lat="49.17323" lon="-0.58792">
        <ele>86.6560059</ele>
        <time>2008-11-23T07:59:41Z</time>
      </trkpt>
      <trkpt lat="49.17325" lon="-0.58865">
        <ele>84.7333984</ele>
        <time>2008-11-23T07:59:53Z</time>
      </trkpt>
      <trkpt lat="49.17328" lon="-0.58937">
        <ele>83.2913818</ele>
        <time>2008-11-23T08:00:05Z</time>
      </trkpt>
      <trkpt lat="49.17329" lon="-0.59007">
        <ele>81.8493652</ele>
        <time>2008-11-23T08:00:17Z</time>
      </trkpt>
      <trkpt lat="49.17327" lon="-0.59078">
        <ele>80.8881836</ele>
        <time>2008-11-23T08:00:29Z</time>
      </trkpt>
      <trkpt lat="49.17327" lon="-0.59149">
        <ele>80.8881836</ele>
        <time>2008-11-23T08:00:41Z</time>
      </trkpt>
      <trkpt lat="49.17325" lon="-0.59219">
        <ele>80.8881836</ele>
        <time>2008-11-23T08:00:53Z</time>
      </trkpt>
      <trkpt lat="49.17323" lon="-0.5929">
        <ele>81.8493652</ele>
        <time>2008-11-23T08:01:05Z</time>
      </trkpt>
      <trkpt lat="49.17321" lon="-0.5936">
        <ele>82.3300781</ele>
        <time>2008-11-23T08:01:17Z</time>
      </trkpt>
      <trkpt lat="49.17318" lon="-0.59429">
        <ele>82.3300781</ele>
        <time>2008-11-23T08:01:29Z</time>
      </trkpt>
      <trkpt lat="49.17315" lon="-0.59498">
        <ele>82.810791</ele>
        <time>2008-11-23T08:01:41Z</time>
      </trkpt>
      <trkpt lat="49.17312" lon="-0.5957">
        <ele>81.8493652</ele>
        <time>2008-11-23T08:01:53Z</time>
      </trkpt>
      <trkpt lat="49.17307" lon="-0.59644">
        <ele>81.3687744</ele>
        <time>2008-11-23T08:02:05Z</time>
      </trkpt>
      <trkpt lat="49.17302" lon="-0.59713">
        <ele>81.3687744</ele>
        <time>2008-11-23T08:02:16Z</time>
      </trkpt>
      <trkpt lat="49.17297" lon="-0.59786">
        <ele>80.4074707</ele>
        <time>2008-11-23T08:02:28Z</time>
      </trkpt>
      <trkpt lat="49.17289" lon="-0.59857">
        <ele>79.9266357</ele>
        <time>2008-11-23T08:02:40Z</time>
      </trkpt>
      <trkpt lat="49.17284" lon="-0.59926">
        <ele>79.9266357</ele>
        <time>2008-11-23T08:02:52Z</time>
      </trkpt>
      <trkpt lat="49.17282" lon="-0.59999">
        <ele>78.9654541</ele>
        <time>2008-11-23T08:03:04Z</time>
      </trkpt>
      <trkpt lat="49.1728" lon="-0.60072">
        <ele>78.0040283</ele>
        <time>2008-11-23T08:03:16Z</time>
      </trkpt>
      <trkpt lat="49.17277" lon="-0.60143">
        <ele>78.4847412</ele>
        <time>2008-11-23T08:03:29Z</time>
      </trkpt>
      <trkpt lat="49.17297" lon="-0.6017">
        <ele>85.2139893</ele>
        <time>2008-11-23T08:06:25Z</time>
      </trkpt>
      <trkpt lat="49.17344" lon="-0.60163">
        <ele>85.6945801</ele>
        <time>2008-11-23T08:06:38Z</time>
      </trkpt>
      <trkpt lat="49.17389" lon="-0.60154">
        <ele>86.175293</ele>
        <time>2008-11-23T08:06:51Z</time>
      </trkpt>
      <trkpt lat="49.17435" lon="-0.60145">
        <ele>86.175293</ele>
        <time>2008-11-23T08:07:03Z</time>
      </trkpt>
      <trkpt lat="49.17484" lon="-0.60135">
        <ele>85.6945801</ele>
        <time>2008-11-23T08:07:15Z</time>
      </trkpt>
      <trkpt lat="49.17529" lon="-0.60127">
        <ele>85.2139893</ele>
        <time>2008-11-23T08:07:26Z</time>
      </trkpt>
      <trkpt lat="49.17574" lon="-0.6012">
        <ele>84.7333984</ele>
        <time>2008-11-23T08:07:37Z</time>
      </trkpt>
      <trkpt lat="49.1762" lon="-0.60117">
        <ele>83.2913818</ele>
        <time>2008-11-23T08:07:51Z</time>
      </trkpt>
      <trkpt lat="49.17632" lon="-0.60186">
        <ele>78.9654541</ele>
        <time>2008-11-23T08:08:03Z</time>
      </trkpt>
      <trkpt lat="49.17672" lon="-0.60157">
        <ele>80.8881836</ele>
        <time>2008-11-23T08:08:17Z</time>
      </trkpt>
      <trkpt lat="49.17707" lon="-0.60114">
        <ele>81.8493652</ele>
        <time>2008-11-23T08:08:27Z</time>
      </trkpt>
      <trkpt lat="49.17742" lon="-0.60065">
        <ele>81.3687744</ele>
        <time>2008-11-23T08:08:39Z</time>
      </trkpt>
      <trkpt lat="49.17776" lon="-0.60015">
        <ele>81.3687744</ele>
        <time>2008-11-23T08:08:51Z</time>
      </trkpt>
      <trkpt lat="49.1781" lon="-0.59964">
        <ele>80.8881836</ele>
        <time>2008-11-23T08:09:03Z</time>
      </trkpt>
      <trkpt lat="49.17843" lon="-0.59915">
        <ele>80.4074707</ele>
        <time>2008-11-23T08:09:15Z</time>
      </trkpt>
      <trkpt lat="49.17876" lon="-0.59864">
        <ele>81.3687744</ele>
        <time>2008-11-23T08:09:28Z</time>
      </trkpt>
      <trkpt lat="49.17911" lon="-0.59818">
        <ele>80.8881836</ele>
        <time>2008-11-23T08:09:43Z</time>
      </trkpt>
      <trkpt lat="49.17945" lon="-0.59771">
        <ele>81.3687744</ele>
        <time>2008-11-23T08:09:58Z</time>
      </trkpt>
      <trkpt lat="49.1798" lon="-0.59725">
        <ele>82.3300781</ele>
        <time>2008-11-23T08:10:12Z</time>
      </trkpt>
      <trkpt lat="49.18014" lon="-0.59679">
        <ele>83.2913818</ele>
        <time>2008-11-23T08:10:27Z</time>
      </trkpt>
      <trkpt lat="49.18051" lon="-0.59633">
        <ele>84.2526855</ele>
        <time>2008-11-23T08:10:43Z</time>
      </trkpt>
      <trkpt lat="49.18085" lon="-0.59588">
        <ele>85.6945801</ele>
        <time>2008-11-23T08:10:59Z</time>
      </trkpt>
      <trkpt lat="49.18122" lon="-0.59541">
        <ele>86.175293</ele>
        <time>2008-11-23T08:11:15Z</time>
      </trkpt>
      <trkpt lat="49.18133" lon="-0.59488">
        <ele>86.6560059</ele>
        <time>2008-11-23T08:11:33Z</time>
      </trkpt>
      <trkpt lat="49.18114" lon="-0.59424">
        <ele>84.7333984</ele>
        <time>2008-11-23T08:11:49Z</time>
      </trkpt>
      <trkpt lat="49.18096" lon="-0.59358">
        <ele>83.7719727</ele>
        <time>2008-11-23T08:12:04Z</time>
      </trkpt>
      <trkpt lat="49.18082" lon="-0.59289">
        <ele>82.810791</ele>
        <time>2008-11-23T08:12:19Z</time>
      </trkpt>
      <trkpt lat="49.18069" lon="-0.59223">
        <ele>83.2913818</ele>
        <time>2008-11-23T08:12:33Z</time>
      </trkpt>
      <trkpt lat="49.18058" lon="-0.59156">
        <ele>84.2526855</ele>
        <time>2008-11-23T08:12:47Z</time>
      </trkpt>
      <trkpt lat="49.18047" lon="-0.59085">
        <ele>85.2139893</ele>
        <time>2008-11-23T08:13:01Z</time>
      </trkpt>
      <trkpt lat="49.18035" lon="-0.59015">
        <ele>85.6945801</ele>
        <time>2008-11-23T08:13:14Z</time>
      </trkpt>
      <trkpt lat="49.18023" lon="-0.58945">
        <ele>86.6560059</ele>
        <time>2008-11-23T08:13:27Z</time>
      </trkpt>
      <trkpt lat="49.18011" lon="-0.58877">
        <ele>87.6171875</ele>
        <time>2008-11-23T08:13:40Z</time>
      </trkpt>
      <trkpt lat="49.18039" lon="-0.58876">
        <ele>84.7333984</ele>
        <time>2008-11-23T08:13:55Z</time>
      </trkpt>
      <trkpt lat="49.18081" lon="-0.58902">
        <ele>85.2139893</ele>
        <time>2008-11-23T08:14:07Z</time>
      </trkpt>
      <trkpt lat="49.18127" lon="-0.58924">
        <ele>84.2526855</ele>
        <time>2008-11-23T08:14:19Z</time>
      </trkpt>
      <trkpt lat="49.18174" lon="-0.5894">
        <ele>83.7719727</ele>
        <time>2008-11-23T08:14:31Z</time>
      </trkpt>
      <trkpt lat="49.18221" lon="-0.58954">
        <ele>85.2139893</ele>
        <time>2008-11-23T08:14:41Z</time>
      </trkpt>
      <trkpt lat="49.18268" lon="-0.58968">
        <ele>87.1365967</ele>
        <time>2008-11-23T08:14:51Z</time>
      </trkpt>
      <trkpt lat="49.18315" lon="-0.58981">
        <ele>88.5787354</ele>
        <time>2008-11-23T08:15:01Z</time>
      </trkpt>
      <trkpt lat="49.18361" lon="-0.59005">
        <ele>89.539917</ele>
        <time>2008-11-23T08:15:11Z</time>
      </trkpt>
      <trkpt lat="49.18402" lon="-0.59044">
        <ele>90.9819336</ele>
        <time>2008-11-23T08:15:22Z</time>
      </trkpt>
      <trkpt lat="49.18441" lon="-0.5908">
        <ele>91.9432373</ele>
        <time>2008-11-23T08:15:32Z</time>
      </trkpt>
      <trkpt lat="49.18478" lon="-0.59119">
        <ele>94.8271484</ele>
        <time>2008-11-23T08:15:46Z</time>
      </trkpt>
      <trkpt lat="49.18513" lon="-0.59162">
        <ele>99.1530762</ele>
        <time>2008-11-23T08:16:01Z</time>
      </trkpt>
      <trkpt lat="49.18544" lon="-0.59215">
        <ele>99.1530762</ele>
        <time>2008-11-23T08:16:14Z</time>
      </trkpt>
      <trkpt lat="49.1858" lon="-0.59266">
        <ele>98.6724854</ele>
        <time>2008-11-23T08:16:27Z</time>
      </trkpt>
      <trkpt lat="49.18621" lon="-0.59299">
        <ele>97.7111816</ele>
        <time>2008-11-23T08:16:41Z</time>
      </trkpt>
      <trkpt lat="49.18667" lon="-0.59317">
        <ele>104.4404297</ele>
        <time>2008-11-23T08:16:58Z</time>
      </trkpt>
      <trkpt lat="49.18702" lon="-0.59362">
        <ele>105.8824463</ele>
        <time>2008-11-23T08:17:10Z</time>
      </trkpt>
      <trkpt lat="49.18729" lon="-0.59417">
        <ele>102.5177002</ele>
        <time>2008-11-23T08:17:21Z</time>
      </trkpt>
      <trkpt lat="49.18752" lon="-0.59479">
        <ele>101.0756836</ele>
        <time>2008-11-23T08:17:33Z</time>
      </trkpt>
      <trkpt lat="49.18776" lon="-0.59542">
        <ele>101.0756836</ele>
        <time>2008-11-23T08:17:45Z</time>
      </trkpt>
      <trkpt lat="49.18801" lon="-0.59604">
        <ele>100.5950928</ele>
        <time>2008-11-23T08:17:56Z</time>
      </trkpt>
      <trkpt lat="49.18826" lon="-0.59669">
        <ele>100.5950928</ele>
        <time>2008-11-23T08:18:08Z</time>
      </trkpt>
      <trkpt lat="49.18853" lon="-0.5973">
        <ele>96.7498779</ele>
        <time>2008-11-23T08:18:19Z</time>
      </trkpt>
      <trkpt lat="49.18882" lon="-0.59783">
        <ele>97.7111816</ele>
        <time>2008-11-23T08:18:30Z</time>
      </trkpt>
      <trkpt lat="49.18915" lon="-0.59833">
        <ele>98.1918945</ele>
        <time>2008-11-23T08:18:41Z</time>
      </trkpt>
      <trkpt lat="49.18926" lon="-0.59903">
        <ele>96.2692871</ele>
        <time>2008-11-23T08:18:52Z</time>
      </trkpt>
      <trkpt lat="49.18926" lon="-0.59973">
        <ele>95.7884521</ele>
        <time>2008-11-23T08:19:03Z</time>
      </trkpt>
      <trkpt lat="49.18925" lon="-0.60042">
        <ele>95.7884521</ele>
        <time>2008-11-23T08:19:14Z</time>
      </trkpt>
      <trkpt lat="49.18931" lon="-0.60111">
        <ele>95.3077393</ele>
        <time>2008-11-23T08:19:25Z</time>
      </trkpt>
      <trkpt lat="49.18942" lon="-0.60184">
        <ele>95.7884521</ele>
        <time>2008-11-23T08:19:37Z</time>
      </trkpt>
      <trkpt lat="49.1895" lon="-0.60254">
        <ele>93.3851318</ele>
        <time>2008-11-23T08:19:48Z</time>
      </trkpt>
      <trkpt lat="49.18961" lon="-0.60325">
        <ele>91.9432373</ele>
        <time>2008-11-23T08:19:59Z</time>
      </trkpt>
      <trkpt lat="49.18977" lon="-0.60392">
        <ele>90.5013428</ele>
        <time>2008-11-23T08:20:11Z</time>
      </trkpt>
      <trkpt lat="49.19019" lon="-0.60361">
        <ele>93.8658447</ele>
        <time>2008-11-23T08:20:24Z</time>
      </trkpt>
      <trkpt lat="49.19062" lon="-0.60328">
        <ele>95.3077393</ele>
        <time>2008-11-23T08:20:37Z</time>
      </trkpt>
      <trkpt lat="49.19105" lon="-0.60296">
        <ele>98.1918945</ele>
        <time>2008-11-23T08:20:50Z</time>
      </trkpt>
      <trkpt lat="49.19146" lon="-0.60265">
        <ele>102.0371094</ele>
        <time>2008-11-23T08:21:02Z</time>
      </trkpt>
      <trkpt lat="49.19182" lon="-0.60273">
        <ele>102.0371094</ele>
        <time>2008-11-23T08:21:15Z</time>
      </trkpt>
      <trkpt lat="49.19191" lon="-0.60343">
        <ele>100.114502</ele>
        <time>2008-11-23T08:21:28Z</time>
      </trkpt>
      <trkpt lat="49.192" lon="-0.60415">
        <ele>100.114502</ele>
        <time>2008-11-23T08:21:40Z</time>
      </trkpt>
      <trkpt lat="49.19209" lon="-0.60488">
        <ele>100.5950928</ele>
        <time>2008-11-23T08:21:52Z</time>
      </trkpt>
      <trkpt lat="49.19218" lon="-0.60556">
        <ele>100.114502</ele>
        <time>2008-11-23T08:22:03Z</time>
      </trkpt>
      <trkpt lat="49.19226" lon="-0.60624">
        <ele>100.114502</ele>
        <time>2008-11-23T08:22:14Z</time>
      </trkpt>
      <trkpt lat="49.19234" lon="-0.60693">
        <ele>100.114502</ele>
        <time>2008-11-23T08:22:25Z</time>
      </trkpt>
      <trkpt lat="49.19242" lon="-0.60761">
        <ele>100.114502</ele>
        <time>2008-11-23T08:22:36Z</time>
      </trkpt>
      <trkpt lat="49.19251" lon="-0.60833">
        <ele>99.6337891</ele>
        <time>2008-11-23T08:22:47Z</time>
      </trkpt>
      <trkpt lat="49.19259" lon="-0.60901">
        <ele>98.6724854</ele>
        <time>2008-11-23T08:22:57Z</time>
      </trkpt>
      <trkpt lat="49.19268" lon="-0.60971">
        <ele>97.7111816</ele>
        <time>2008-11-23T08:23:07Z</time>
      </trkpt>
      <trkpt lat="49.19272" lon="-0.6104">
        <ele>95.7884521</ele>
        <time>2008-11-23T08:23:17Z</time>
      </trkpt>
      <trkpt lat="49.19271" lon="-0.61113">
        <ele>91.9432373</ele>
        <time>2008-11-23T08:23:27Z</time>
      </trkpt>
      <trkpt lat="49.19271" lon="-0.61182">
        <ele>91.4625244</ele>
        <time>2008-11-23T08:23:36Z</time>
      </trkpt>
      <trkpt lat="49.19265" lon="-0.61254">
        <ele>93.3851318</ele>
        <time>2008-11-23T08:23:45Z</time>
      </trkpt>
      <trkpt lat="49.19258" lon="-0.61327">
        <ele>93.8658447</ele>
        <time>2008-11-23T08:23:54Z</time>
      </trkpt>
      <trkpt lat="49.19255" lon="-0.614">
        <ele>95.7884521</ele>
        <time>2008-11-23T08:24:04Z</time>
      </trkpt>
      <trkpt lat="49.19271" lon="-0.61471">
        <ele>92.4239502</ele>
        <time>2008-11-23T08:24:14Z</time>
      </trkpt>
      <trkpt lat="49.19297" lon="-0.61537">
        <ele>88.5787354</ele>
        <time>2008-11-23T08:24:23Z</time>
      </trkpt>
      <trkpt lat="49.1932" lon="-0.61599">
        <ele>87.1365967</ele>
        <time>2008-11-23T08:24:31Z</time>
      </trkpt>
      <trkpt lat="49.19336" lon="-0.61665">
        <ele>84.7333984</ele>
        <time>2008-11-23T08:24:39Z</time>
      </trkpt>
      <trkpt lat="49.19351" lon="-0.61731">
        <ele>85.2139893</ele>
        <time>2008-11-23T08:24:47Z</time>
      </trkpt>
      <trkpt lat="49.19363" lon="-0.61803">
        <ele>83.2913818</ele>
        <time>2008-11-23T08:24:57Z</time>
      </trkpt>
      <trkpt lat="49.19367" lon="-0.61876">
        <ele>81.3687744</ele>
        <time>2008-11-23T08:25:09Z</time>
      </trkpt>
      <trkpt lat="49.19405" lon="-0.61899">
        <ele>81.3687744</ele>
        <time>2008-11-23T08:25:23Z</time>
      </trkpt>
      <trkpt lat="49.19454" lon="-0.61897">
        <ele>80.8881836</ele>
        <time>2008-11-23T08:25:31Z</time>
      </trkpt>
      <trkpt lat="49.19504" lon="-0.6189">
        <ele>79.9266357</ele>
        <time>2008-11-23T08:25:38Z</time>
      </trkpt>
      <trkpt lat="49.19551" lon="-0.61881">
        <ele>78.4847412</ele>
        <time>2008-11-23T08:25:45Z</time>
      </trkpt>
      <trkpt lat="49.19595" lon="-0.61872">
        <ele>76.0814209</ele>
        <time>2008-11-23T08:25:52Z</time>
      </trkpt>
      <trkpt lat="49.19644" lon="-0.6186">
        <ele>75.1202393</ele>
        <time>2008-11-23T08:25:59Z</time>
      </trkpt>
      <trkpt lat="49.19695" lon="-0.61847">
        <ele>72.7169189</ele>
        <time>2008-11-23T08:26:06Z</time>
      </trkpt>
      <trkpt lat="49.19741" lon="-0.61838">
        <ele>70.3134766</ele>
        <time>2008-11-23T08:26:12Z</time>
      </trkpt>
      <trkpt lat="49.1979" lon="-0.61827">
        <ele>68.3908691</ele>
        <time>2008-11-23T08:26:19Z</time>
      </trkpt>
      <trkpt lat="49.19835" lon="-0.61816">
        <ele>66.4682617</ele>
        <time>2008-11-23T08:26:26Z</time>
      </trkpt>
      <trkpt lat="49.19876" lon="-0.61829">
        <ele>65.9876709</ele>
        <time>2008-11-23T08:26:35Z</time>
      </trkpt>
      <trkpt lat="49.19888" lon="-0.61904">
        <ele>65.5070801</ele>
        <time>2008-11-23T08:26:44Z</time>
      </trkpt>
      <trkpt lat="49.19899" lon="-0.61978">
        <ele>64.0650635</ele>
        <time>2008-11-23T08:26:53Z</time>
      </trkpt>
      <trkpt lat="49.19913" lon="-0.62049">
        <ele>62.6229248</ele>
        <time>2008-11-23T08:27:02Z</time>
      </trkpt>
      <trkpt lat="49.19936" lon="-0.6211">
        <ele>60.7003174</ele>
        <time>2008-11-23T08:27:11Z</time>
      </trkpt>
      <trkpt lat="49.19952" lon="-0.62175">
        <ele>59.7391357</ele>
        <time>2008-11-23T08:27:22Z</time>
      </trkpt>
      <trkpt lat="49.1995" lon="-0.62249">
        <ele>58.77771</ele>
        <time>2008-11-23T08:27:32Z</time>
      </trkpt>
      <trkpt lat="49.19941" lon="-0.6232">
        <ele>59.2584229</ele>
        <time>2008-11-23T08:27:41Z</time>
      </trkpt>
      <trkpt lat="49.19928" lon="-0.62392">
        <ele>58.77771</ele>
        <time>2008-11-23T08:27:50Z</time>
      </trkpt>
      <trkpt lat="49.19922" lon="-0.62465">
        <ele>57.8165283</ele>
        <time>2008-11-23T08:27:58Z</time>
      </trkpt>
      <trkpt lat="49.19918" lon="-0.62541">
        <ele>52.5291748</ele>
        <time>2008-11-23T08:28:07Z</time>
      </trkpt>
      <trkpt lat="49.19918" lon="-0.62613">
        <ele>50.6065674</ele>
        <time>2008-11-23T08:28:15Z</time>
      </trkpt>
      <trkpt lat="49.1992" lon="-0.62689">
        <ele>49.1645508</ele>
        <time>2008-11-23T08:28:23Z</time>
      </trkpt>
      <trkpt lat="49.19916" lon="-0.62752">
        <ele>42.9160156</ele>
        <time>2008-11-23T08:28:34Z</time>
      </trkpt>
      <trkpt lat="49.19899" lon="-0.62808">
        <ele>40.9934082</ele>
        <time>2008-11-23T08:28:53Z</time>
      </trkpt>
      <trkpt lat="49.19879" lon="-0.62789">
        <ele>45.3192139</ele>
        <time>2008-11-23T08:29:15Z</time>
      </trkpt>
      <trkpt lat="49.19898" lon="-0.6281">
        <ele>43.3966064</ele>
        <time>2008-11-23T08:29:44Z</time>
      </trkpt>
      <trkpt lat="49.19907" lon="-0.62869">
        <ele>43.8773193</ele>
        <time>2008-11-23T08:30:34Z</time>
      </trkpt>
      <trkpt lat="49.19898" lon="-0.6293">
        <ele>43.8773193</ele>
        <time>2008-11-23T08:31:36Z</time>
      </trkpt>
      <trkpt lat="49.19869" lon="-0.62974">
        <ele>46.2806396</ele>
        <time>2008-11-23T08:32:24Z</time>
      </trkpt>
      <trkpt lat="49.1983" lon="-0.63016">
        <ele>47.2418213</ele>
        <time>2008-11-23T08:32:35Z</time>
      </trkpt>
      <trkpt lat="49.19791" lon="-0.6306">
        <ele>48.68396</ele>
        <time>2008-11-23T08:32:46Z</time>
      </trkpt>
      <trkpt lat="49.19753" lon="-0.63105">
        <ele>50.1259766</ele>
        <time>2008-11-23T08:32:56Z</time>
      </trkpt>
      <trkpt lat="49.19715" lon="-0.63145">
        <ele>51.0871582</ele>
        <time>2008-11-23T08:33:06Z</time>
      </trkpt>
      <trkpt lat="49.19676" lon="-0.63185">
        <ele>51.0871582</ele>
        <time>2008-11-23T08:33:16Z</time>
      </trkpt>
      <trkpt lat="49.19639" lon="-0.63226">
        <ele>52.048584</ele>
        <time>2008-11-23T08:33:26Z</time>
      </trkpt>
      <trkpt lat="49.19601" lon="-0.63271">
        <ele>52.048584</ele>
        <time>2008-11-23T08:33:36Z</time>
      </trkpt>
      <trkpt lat="49.19565" lon="-0.63316">
        <ele>53.0097656</ele>
        <time>2008-11-23T08:33:46Z</time>
      </trkpt>
      <trkpt lat="49.19531" lon="-0.63366">
        <ele>53.4904785</ele>
        <time>2008-11-23T08:33:56Z</time>
      </trkpt>
      <trkpt lat="49.195" lon="-0.6342">
        <ele>54.4517822</ele>
        <time>2008-11-23T08:34:06Z</time>
      </trkpt>
      <trkpt lat="49.19465" lon="-0.63465">
        <ele>53.0097656</ele>
        <time>2008-11-23T08:34:16Z</time>
      </trkpt>
      <trkpt lat="49.1943" lon="-0.63514">
        <ele>55.4130859</ele>
        <time>2008-11-23T08:34:27Z</time>
      </trkpt>
      <trkpt lat="49.19399" lon="-0.63564">
        <ele>57.8165283</ele>
        <time>2008-11-23T08:34:37Z</time>
      </trkpt>
      <trkpt lat="49.19374" lon="-0.63623">
        <ele>59.7391357</ele>
        <time>2008-11-23T08:34:48Z</time>
      </trkpt>
      <trkpt lat="49.19356" lon="-0.63686">
        <ele>60.2197266</ele>
        <time>2008-11-23T08:35:01Z</time>
      </trkpt>
      <trkpt lat="49.19338" lon="-0.63751">
        <ele>60.7003174</ele>
        <time>2008-11-23T08:35:16Z</time>
      </trkpt>
      <trkpt lat="49.19309" lon="-0.63806">
        <ele>66.4682617</ele>
        <time>2008-11-23T08:35:39Z</time>
      </trkpt>
      <trkpt lat="49.19277" lon="-0.63854">
        <ele>66.4682617</ele>
        <time>2008-11-23T08:36:00Z</time>
      </trkpt>
      <trkpt lat="49.19242" lon="-0.63892">
        <ele>68.871582</ele>
        <time>2008-11-23T08:36:23Z</time>
      </trkpt>
      <trkpt lat="49.19197" lon="-0.6388">
        <ele>73.6782227</ele>
        <time>2008-11-23T08:36:48Z</time>
      </trkpt>
      <trkpt lat="49.19152" lon="-0.63879">
        <ele>77.5234375</ele>
        <time>2008-11-23T08:37:08Z</time>
      </trkpt>
      <trkpt lat="49.19139" lon="-0.63826">
        <ele>72.7169189</ele>
        <time>2008-11-23T08:38:41Z</time>
      </trkpt>
      <trkpt lat="49.19127" lon="-0.63753">
        <ele>65.9876709</ele>
        <time>2008-11-23T08:38:50Z</time>
      </trkpt>
      <trkpt lat="49.19119" lon="-0.63684">
        <ele>57.8165283</ele>
        <time>2008-11-23T08:38:57Z</time>
      </trkpt>
      <trkpt lat="49.1911" lon="-0.6361">
        <ele>52.048584</ele>
        <time>2008-11-23T08:39:04Z</time>
      </trkpt>
      <trkpt lat="49.1911" lon="-0.63536">
        <ele>47.7225342</ele>
        <time>2008-11-23T08:39:11Z</time>
      </trkpt>
      <trkpt lat="49.19075" lon="-0.63508">
        <ele>51.0871582</ele>
        <time>2008-11-23T08:39:24Z</time>
      </trkpt>
      <trkpt lat="49.19028" lon="-0.63511">
        <ele>60.2197266</ele>
        <time>2008-11-23T08:39:38Z</time>
      </trkpt>
      <trkpt lat="49.18981" lon="-0.63523">
        <ele>63.1036377</ele>
        <time>2008-11-23T08:39:52Z</time>
      </trkpt>
      <trkpt lat="49.18935" lon="-0.63537">
        <ele>65.5070801</ele>
        <time>2008-11-23T08:40:05Z</time>
      </trkpt>
      <trkpt lat="49.18888" lon="-0.6356">
        <ele>65.5070801</ele>
        <time>2008-11-23T08:40:17Z</time>
      </trkpt>
      <trkpt lat="49.18847" lon="-0.63589">
        <ele>63.5843506</ele>
        <time>2008-11-23T08:40:27Z</time>
      </trkpt>
      <trkpt lat="49.1881" lon="-0.63635">
        <ele>63.5843506</ele>
        <time>2008-11-23T08:40:37Z</time>
      </trkpt>
      <trkpt lat="49.18779" lon="-0.63687">
        <ele>63.1036377</ele>
        <time>2008-11-23T08:40:46Z</time>
      </trkpt>
      <trkpt lat="49.1875" lon="-0.63745">
        <ele>62.142334</ele>
        <time>2008-11-23T08:40:56Z</time>
      </trkpt>
      <trkpt lat="49.18718" lon="-0.63791">
        <ele>63.1036377</ele>
        <time>2008-11-23T08:41:19Z</time>
      </trkpt>
      <trkpt lat="49.18679" lon="-0.63831">
        <ele>66.9489746</ele>
        <time>2008-11-23T08:41:31Z</time>
      </trkpt>
      <trkpt lat="49.18645" lon="-0.63875">
        <ele>66.9489746</ele>
        <time>2008-11-23T08:41:42Z</time>
      </trkpt>
      <trkpt lat="49.18619" lon="-0.63931">
        <ele>67.9102783</ele>
        <time>2008-11-23T08:41:56Z</time>
      </trkpt>
      <trkpt lat="49.1858" lon="-0.63974">
        <ele>66.4682617</ele>
        <time>2008-11-23T08:42:06Z</time>
      </trkpt>
      <trkpt lat="49.18545" lon="-0.64023">
        <ele>66.9489746</ele>
        <time>2008-11-23T08:42:15Z</time>
      </trkpt>
      <trkpt lat="49.18514" lon="-0.64079">
        <ele>67.4296875</ele>
        <time>2008-11-23T08:42:25Z</time>
      </trkpt>
      <trkpt lat="49.18483" lon="-0.64132">
        <ele>70.3134766</ele>
        <time>2008-11-23T08:42:37Z</time>
      </trkpt>
      <trkpt lat="49.18452" lon="-0.64188">
        <ele>66.9489746</ele>
        <time>2008-11-23T08:42:50Z</time>
      </trkpt>
      <trkpt lat="49.18464" lon="-0.6425">
        <ele>65.5070801</ele>
        <time>2008-11-23T08:43:04Z</time>
      </trkpt>
      <trkpt lat="49.18496" lon="-0.643">
        <ele>67.9102783</ele>
        <time>2008-11-23T08:43:19Z</time>
      </trkpt>
      <trkpt lat="49.18533" lon="-0.64345">
        <ele>75.1202393</ele>
        <time>2008-11-23T08:43:36Z</time>
      </trkpt>
      <trkpt lat="49.1857" lon="-0.64386">
        <ele>79.9266357</ele>
        <time>2008-11-23T08:43:52Z</time>
      </trkpt>
      <trkpt lat="49.18605" lon="-0.64431">
        <ele>84.7333984</ele>
        <time>2008-11-23T08:44:08Z</time>
      </trkpt>
      <trkpt lat="49.18635" lon="-0.64486">
        <ele>84.2526855</ele>
        <time>2008-11-23T08:44:22Z</time>
      </trkpt>
      <trkpt lat="49.18663" lon="-0.64542">
        <ele>82.3300781</ele>
        <time>2008-11-23T08:44:35Z</time>
      </trkpt>
      <trkpt lat="49.18686" lon="-0.64599">
        <ele>81.8493652</ele>
        <time>2008-11-23T08:44:49Z</time>
      </trkpt>
      <trkpt lat="49.18656" lon="-0.64655">
        <ele>81.8493652</ele>
        <time>2008-11-23T08:45:02Z</time>
      </trkpt>
      <trkpt lat="49.18628" lon="-0.64716">
        <ele>84.7333984</ele>
        <time>2008-11-23T08:45:14Z</time>
      </trkpt>
      <trkpt lat="49.18602" lon="-0.64777">
        <ele>85.2139893</ele>
        <time>2008-11-23T08:45:25Z</time>
      </trkpt>
      <trkpt lat="49.18578" lon="-0.64838">
        <ele>86.175293</ele>
        <time>2008-11-23T08:45:36Z</time>
      </trkpt>
      <trkpt lat="49.18559" lon="-0.64902">
        <ele>86.6560059</ele>
        <time>2008-11-23T08:45:49Z</time>
      </trkpt>
      <trkpt lat="49.18536" lon="-0.64965">
        <ele>87.1365967</ele>
        <time>2008-11-23T08:46:02Z</time>
      </trkpt>
      <trkpt lat="49.18513" lon="-0.65028">
        <ele>88.0980225</ele>
        <time>2008-11-23T08:46:17Z</time>
      </trkpt>
      <trkpt lat="49.18488" lon="-0.65089">
        <ele>88.0980225</ele>
        <time>2008-11-23T08:46:33Z</time>
      </trkpt>
      <trkpt lat="49.18479" lon="-0.65156">
        <ele>85.2139893</ele>
        <time>2008-11-23T08:46:49Z</time>
      </trkpt>
      <trkpt lat="49.18471" lon="-0.65225">
        <ele>83.7719727</ele>
        <time>2008-11-23T08:47:05Z</time>
      </trkpt>
      <trkpt lat="49.18465" lon="-0.65296">
        <ele>82.810791</ele>
        <time>2008-11-23T08:47:21Z</time>
      </trkpt>
      <trkpt lat="49.18457" lon="-0.65366">
        <ele>81.8493652</ele>
        <time>2008-11-23T08:47:36Z</time>
      </trkpt>
      <trkpt lat="49.18451" lon="-0.65434">
        <ele>81.3687744</ele>
        <time>2008-11-23T08:47:51Z</time>
      </trkpt>
      <trkpt lat="49.18446" lon="-0.65504">
        <ele>81.8493652</ele>
        <time>2008-11-23T08:48:07Z</time>
      </trkpt>
      <trkpt lat="49.18453" lon="-0.65572">
        <ele>77.0428467</ele>
        <time>2008-11-23T08:48:43Z</time>
      </trkpt>
      <trkpt lat="49.1846" lon="-0.65641">
        <ele>74.1588135</ele>
        <time>2008-11-23T08:48:58Z</time>
      </trkpt>
      <trkpt lat="49.18459" lon="-0.6571">
        <ele>74.6395264</ele>
        <time>2008-11-23T08:49:10Z</time>
      </trkpt>
      <trkpt lat="49.18441" lon="-0.65775">
        <ele>76.0814209</ele>
        <time>2008-11-23T08:49:26Z</time>
      </trkpt>
      <trkpt lat="49.18468" lon="-0.65834">
        <ele>77.5234375</ele>
        <time>2008-11-23T08:49:41Z</time>
      </trkpt>
      <trkpt lat="49.185" lon="-0.65888">
        <ele>81.3687744</ele>
        <time>2008-11-23T08:49:55Z</time>
      </trkpt>
      <trkpt lat="49.18479" lon="-0.65941">
        <ele>82.810791</ele>
        <time>2008-11-23T08:50:09Z</time>
      </trkpt>
      <trkpt lat="49.18441" lon="-0.65987">
        <ele>83.7719727</ele>
        <time>2008-11-23T08:50:21Z</time>
      </trkpt>
      <trkpt lat="49.18404" lon="-0.66031">
        <ele>84.7333984</ele>
        <time>2008-11-23T08:50:32Z</time>
      </trkpt>
      <trkpt lat="49.18369" lon="-0.6608">
        <ele>85.6945801</ele>
        <time>2008-11-23T08:50:43Z</time>
      </trkpt>
      <trkpt lat="49.18337" lon="-0.6613">
        <ele>85.2139893</ele>
        <time>2008-11-23T08:50:53Z</time>
      </trkpt>
      <trkpt lat="49.18316" lon="-0.66193">
        <ele>83.7719727</ele>
        <time>2008-11-23T08:51:07Z</time>
      </trkpt>
      <trkpt lat="49.18296" lon="-0.66261">
        <ele>80.4074707</ele>
        <time>2008-11-23T08:51:19Z</time>
      </trkpt>
      <trkpt lat="49.18272" lon="-0.66324">
        <ele>79.4460449</ele>
        <time>2008-11-23T08:51:32Z</time>
      </trkpt>
      <trkpt lat="49.18246" lon="-0.66381">
        <ele>80.8881836</ele>
        <time>2008-11-23T08:51:47Z</time>
      </trkpt>
      <trkpt lat="49.18219" lon="-0.66436">
        <ele>83.7719727</ele>
        <time>2008-11-23T08:52:00Z</time>
      </trkpt>
      <trkpt lat="49.18176" lon="-0.6647">
        <ele>84.2526855</ele>
        <time>2008-11-23T08:52:13Z</time>
      </trkpt>
      <trkpt lat="49.1813" lon="-0.66493">
        <ele>85.6945801</ele>
        <time>2008-11-23T08:52:26Z</time>
      </trkpt>
      <trkpt lat="49.18088" lon="-0.66521">
        <ele>86.6560059</ele>
        <time>2008-11-23T08:52:38Z</time>
      </trkpt>
      <trkpt lat="49.18047" lon="-0.66558">
        <ele>87.6171875</ele>
        <time>2008-11-23T08:52:50Z</time>
      </trkpt>
      <trkpt lat="49.18015" lon="-0.66608">
        <ele>87.1365967</ele>
        <time>2008-11-23T08:53:01Z</time>
      </trkpt>
      <trkpt lat="49.17983" lon="-0.66659">
        <ele>88.0980225</ele>
        <time>2008-11-23T08:53:13Z</time>
      </trkpt>
      <trkpt lat="49.1795" lon="-0.66712">
        <ele>87.1365967</ele>
        <time>2008-11-23T08:53:26Z</time>
      </trkpt>
      <trkpt lat="49.17927" lon="-0.66772">
        <ele>86.175293</ele>
        <time>2008-11-23T08:53:40Z</time>
      </trkpt>
      <trkpt lat="49.17915" lon="-0.66841">
        <ele>84.7333984</ele>
        <time>2008-11-23T08:53:57Z</time>
      </trkpt>
      <trkpt lat="49.17905" lon="-0.66911">
        <ele>84.2526855</ele>
        <time>2008-11-23T08:54:13Z</time>
      </trkpt>
      <trkpt lat="49.17895" lon="-0.66979">
        <ele>84.7333984</ele>
        <time>2008-11-23T08:54:28Z</time>
      </trkpt>
      <trkpt lat="49.17884" lon="-0.67046">
        <ele>85.2139893</ele>
        <time>2008-11-23T08:54:45Z</time>
      </trkpt>
      <trkpt lat="49.17873" lon="-0.67114">
        <ele>85.6945801</ele>
        <time>2008-11-23T08:55:01Z</time>
      </trkpt>
      <trkpt lat="49.17863" lon="-0.67184">
        <ele>87.1365967</ele>
        <time>2008-11-23T08:55:18Z</time>
      </trkpt>
      <trkpt lat="49.17852" lon="-0.67252">
        <ele>86.6560059</ele>
        <time>2008-11-23T08:55:37Z</time>
      </trkpt>
      <trkpt lat="49.17842" lon="-0.67321">
        <ele>84.7333984</ele>
        <time>2008-11-23T08:55:56Z</time>
      </trkpt>
      <trkpt lat="49.17847" lon="-0.67376">
        <ele>82.810791</ele>
        <time>2008-11-23T08:56:13Z</time>
      </trkpt>
      <trkpt lat="49.17873" lon="-0.67418">
        <ele>87.1365967</ele>
        <time>2008-11-23T08:56:29Z</time>
      </trkpt>
      <trkpt lat="49.17884" lon="-0.67489">
        <ele>86.175293</ele>
        <time>2008-11-23T08:56:43Z</time>
      </trkpt>
      <trkpt lat="49.17893" lon="-0.67557">
        <ele>86.6560059</ele>
        <time>2008-11-23T08:56:56Z</time>
      </trkpt>
      <trkpt lat="49.17911" lon="-0.67621">
        <ele>86.6560059</ele>
        <time>2008-11-23T08:57:09Z</time>
      </trkpt>
      <trkpt lat="49.17931" lon="-0.67687">
        <ele>89.0593262</ele>
        <time>2008-11-23T08:57:21Z</time>
      </trkpt>
      <trkpt lat="49.17949" lon="-0.67755">
        <ele>88.5787354</ele>
        <time>2008-11-23T08:57:33Z</time>
      </trkpt>
      <trkpt lat="49.17967" lon="-0.67823">
        <ele>84.7333984</ele>
        <time>2008-11-23T08:57:44Z</time>
      </trkpt>
      <trkpt lat="49.17982" lon="-0.67895">
        <ele>86.175293</ele>
        <time>2008-11-23T08:57:55Z</time>
      </trkpt>
      <trkpt lat="49.17993" lon="-0.67966">
        <ele>85.2139893</ele>
        <time>2008-11-23T08:58:04Z</time>
      </trkpt>
      <trkpt lat="49.17978" lon="-0.68034">
        <ele>84.2526855</ele>
        <time>2008-11-23T08:58:12Z</time>
      </trkpt>
      <trkpt lat="49.17971" lon="-0.68106">
        <ele>83.2913818</ele>
        <time>2008-11-23T08:58:21Z</time>
      </trkpt>
      <trkpt lat="49.17969" lon="-0.6818">
        <ele>83.2913818</ele>
        <time>2008-11-23T08:58:30Z</time>
      </trkpt>
      <trkpt lat="49.17954" lon="-0.68246">
        <ele>83.2913818</ele>
        <time>2008-11-23T08:58:38Z</time>
      </trkpt>
      <trkpt lat="49.17938" lon="-0.68313">
        <ele>84.7333984</ele>
        <time>2008-11-23T08:58:46Z</time>
      </trkpt>
      <trkpt lat="49.17915" lon="-0.68381">
        <ele>86.175293</ele>
        <time>2008-11-23T08:58:55Z</time>
      </trkpt>
      <trkpt lat="49.1789" lon="-0.68448">
        <ele>86.6560059</ele>
        <time>2008-11-23T08:59:04Z</time>
      </trkpt>
      <trkpt lat="49.17862" lon="-0.68506">
        <ele>87.1365967</ele>
        <time>2008-11-23T08:59:12Z</time>
      </trkpt>
      <trkpt lat="49.17832" lon="-0.68563">
        <ele>89.539917</ele>
        <time>2008-11-23T08:59:22Z</time>
      </trkpt>
      <trkpt lat="49.17794" lon="-0.68551">
        <ele>96.7498779</ele>
        <time>2008-11-23T08:59:39Z</time>
      </trkpt>
      <trkpt lat="49.17759" lon="-0.68507">
        <ele>102.0371094</ele>
        <time>2008-11-23T08:59:52Z</time>
      </trkpt>
      <trkpt lat="49.17724" lon="-0.68457">
        <ele>101.5563965</ele>
        <time>2008-11-23T09:00:05Z</time>
      </trkpt>
      <trkpt lat="49.17689" lon="-0.68412">
        <ele>101.5563965</ele>
        <time>2008-11-23T09:00:17Z</time>
      </trkpt>
      <trkpt lat="49.1765" lon="-0.68373">
        <ele>100.5950928</ele>
        <time>2008-11-23T09:00:30Z</time>
      </trkpt>
      <trkpt lat="49.17613" lon="-0.68334">
        <ele>100.5950928</ele>
        <time>2008-11-23T09:00:43Z</time>
      </trkpt>
      <trkpt lat="49.17571" lon="-0.683">
        <ele>98.1918945</ele>
        <time>2008-11-23T09:00:54Z</time>
      </trkpt>
      <trkpt lat="49.17527" lon="-0.68291">
        <ele>95.3077393</ele>
        <time>2008-11-23T09:01:06Z</time>
      </trkpt>
      <trkpt lat="49.1748" lon="-0.68299">
        <ele>93.3851318</ele>
        <time>2008-11-23T09:01:23Z</time>
      </trkpt>
      <trkpt lat="49.17437" lon="-0.68313">
        <ele>94.3465576</ele>
        <time>2008-11-23T09:01:39Z</time>
      </trkpt>
      <trkpt lat="49.17392" lon="-0.68304">
        <ele>96.7498779</ele>
        <time>2008-11-23T09:01:54Z</time>
      </trkpt>
      <trkpt lat="49.17353" lon="-0.68266">
        <ele>95.7884521</ele>
        <time>2008-11-23T09:02:07Z</time>
      </trkpt>
      <trkpt lat="49.17319" lon="-0.6822">
        <ele>95.3077393</ele>
        <time>2008-11-23T09:02:20Z</time>
      </trkpt>
      <trkpt lat="49.17278" lon="-0.68191">
        <ele>94.8271484</ele>
        <time>2008-11-23T09:02:34Z</time>
      </trkpt>
      <trkpt lat="49.17243" lon="-0.68148">
        <ele>98.1918945</ele>
        <time>2008-11-23T09:02:51Z</time>
      </trkpt>
      <trkpt lat="49.17206" lon="-0.68105">
        <ele>100.114502</ele>
        <time>2008-11-23T09:03:04Z</time>
      </trkpt>
      <trkpt lat="49.17171" lon="-0.68059">
        <ele>101.5563965</ele>
        <time>2008-11-23T09:03:20Z</time>
      </trkpt>
      <trkpt lat="49.17134" lon="-0.68018">
        <ele>97.2304688</ele>
        <time>2008-11-23T09:03:41Z</time>
      </trkpt>
      <trkpt lat="49.17101" lon="-0.67972">
        <ele>105.8824463</ele>
        <time>2008-11-23T09:04:09Z</time>
      </trkpt>
      <trkpt lat="49.17068" lon="-0.67925">
        <ele>103.4790039</ele>
        <time>2008-11-23T09:04:31Z</time>
      </trkpt>
      <trkpt lat="49.17034" lon="-0.67876">
        <ele>104.4404297</ele>
        <time>2008-11-23T09:04:50Z</time>
      </trkpt>
      <trkpt lat="49.17006" lon="-0.67826">
        <ele>103.9597168</ele>
        <time>2008-11-23T09:05:13Z</time>
      </trkpt>
      <trkpt lat="49.17039" lon="-0.67806">
        <ele>97.2304688</ele>
        <time>2008-11-23T09:06:37Z</time>
      </trkpt>
      <trkpt lat="49.17073" lon="-0.67768">
        <ele>97.7111816</ele>
        <time>2008-11-23T09:07:35Z</time>
      </trkpt>
      <trkpt lat="49.17113" lon="-0.67724">
        <ele>95.3077393</ele>
        <time>2008-11-23T09:07:45Z</time>
      </trkpt>
      <trkpt lat="49.17154" lon="-0.67681">
        <ele>94.3465576</ele>
        <time>2008-11-23T09:07:54Z</time>
      </trkpt>
      <trkpt lat="49.17194" lon="-0.67638">
        <ele>92.904541</ele>
        <time>2008-11-23T09:08:02Z</time>
      </trkpt>
      <trkpt lat="49.17234" lon="-0.67595">
        <ele>92.4239502</ele>
        <time>2008-11-23T09:08:10Z</time>
      </trkpt>
      <trkpt lat="49.17276" lon="-0.67552">
        <ele>90.5013428</ele>
        <time>2008-11-23T09:08:18Z</time>
      </trkpt>
      <trkpt lat="49.17318" lon="-0.67512">
        <ele>89.0593262</ele>
        <time>2008-11-23T09:08:26Z</time>
      </trkpt>
      <trkpt lat="49.17356" lon="-0.67461">
        <ele>88.0980225</ele>
        <time>2008-11-23T09:08:34Z</time>
      </trkpt>
      <trkpt lat="49.17393" lon="-0.67422">
        <ele>86.6560059</ele>
        <time>2008-11-23T09:08:41Z</time>
      </trkpt>
      <trkpt lat="49.17397" lon="-0.67373">
        <ele>91.4625244</ele>
        <time>2008-11-23T09:08:54Z</time>
      </trkpt>
      <trkpt lat="49.17366" lon="-0.67323">
        <ele>96.2692871</ele>
        <time>2008-11-23T09:09:11Z</time>
      </trkpt>
      <trkpt lat="49.17333" lon="-0.67273">
        <ele>100.5950928</ele>
        <time>2008-11-23T09:09:29Z</time>
      </trkpt>
      <trkpt lat="49.17302" lon="-0.67222">
        <ele>99.6337891</ele>
        <time>2008-11-23T09:09:44Z</time>
      </trkpt>
      <trkpt lat="49.17268" lon="-0.67177">
        <ele>99.6337891</ele>
        <time>2008-11-23T09:09:58Z</time>
      </trkpt>
      <trkpt lat="49.17231" lon="-0.67139">
        <ele>98.6724854</ele>
        <time>2008-11-23T09:10:16Z</time>
      </trkpt>
      <trkpt lat="49.17186" lon="-0.67125">
        <ele>96.7498779</ele>
        <time>2008-11-23T09:10:30Z</time>
      </trkpt>
      <trkpt lat="49.17143" lon="-0.67103">
        <ele>96.2692871</ele>
        <time>2008-11-23T09:10:43Z</time>
      </trkpt>
      <trkpt lat="49.171" lon="-0.67078">
        <ele>93.3851318</ele>
        <time>2008-11-23T09:10:55Z</time>
      </trkpt>
      <trkpt lat="49.17056" lon="-0.67061">
        <ele>90.5013428</ele>
        <time>2008-11-23T09:11:05Z</time>
      </trkpt>
      <trkpt lat="49.1701" lon="-0.6705">
        <ele>88.5787354</ele>
        <time>2008-11-23T09:11:17Z</time>
      </trkpt>
      <trkpt lat="49.16969" lon="-0.6703">
        <ele>87.1365967</ele>
        <time>2008-11-23T09:11:30Z</time>
      </trkpt>
      <trkpt lat="49.16951" lon="-0.66967">
        <ele>93.3851318</ele>
        <time>2008-11-23T09:11:51Z</time>
      </trkpt>
      <trkpt lat="49.1694" lon="-0.66901">
        <ele>100.5950928</ele>
        <time>2008-11-23T09:12:30Z</time>
      </trkpt>
      <trkpt lat="49.16933" lon="-0.66872">
        <ele>96.7498779</ele>
        <time>2008-11-23T09:14:48Z</time>
      </trkpt>
      <trkpt lat="49.16942" lon="-0.66887">
        <ele>102.998291</ele>
        <time>2008-11-23T09:17:09Z</time>
      </trkpt>
      <trkpt lat="49.1691" lon="-0.66875">
        <ele>102.0371094</ele>
        <time>2008-11-23T09:19:12Z</time>
      </trkpt>
      <trkpt lat="49.16862" lon="-0.66884">
        <ele>103.4790039</ele>
        <time>2008-11-23T09:19:28Z</time>
      </trkpt>
      <trkpt lat="49.16814" lon="-0.66892">
        <ele>102.5177002</ele>
        <time>2008-11-23T09:19:41Z</time>
      </trkpt>
      <trkpt lat="49.16788" lon="-0.66862">
        <ele>103.4790039</ele>
        <time>2008-11-23T09:19:59Z</time>
      </trkpt>
      <trkpt lat="49.16793" lon="-0.66795">
        <ele>105.8824463</ele>
        <time>2008-11-23T09:20:15Z</time>
      </trkpt>
      <trkpt lat="49.16792" lon="-0.66725">
        <ele>102.998291</ele>
        <time>2008-11-23T09:20:29Z</time>
      </trkpt>
      <trkpt lat="49.16791" lon="-0.66655">
        <ele>104.4404297</ele>
        <time>2008-11-23T09:20:43Z</time>
      </trkpt>
      <trkpt lat="49.16783" lon="-0.66588">
        <ele>110.6888428</ele>
        <time>2008-11-23T09:20:56Z</time>
      </trkpt>
      <trkpt lat="49.16745" lon="-0.66562">
        <ele>112.6115723</ele>
        <time>2008-11-23T09:21:12Z</time>
      </trkpt>
      <trkpt lat="49.16755" lon="-0.6649">
        <ele>111.1695557</ele>
        <time>2008-11-23T09:21:26Z</time>
      </trkpt>
      <trkpt lat="49.16771" lon="-0.66424">
        <ele>107.8050537</ele>
        <time>2008-11-23T09:21:35Z</time>
      </trkpt>
      <trkpt lat="49.1678" lon="-0.66356">
        <ele>106.8436279</ele>
        <time>2008-11-23T09:21:46Z</time>
      </trkpt>
      <trkpt lat="49.16788" lon="-0.66282">
        <ele>105.8824463</ele>
        <time>2008-11-23T09:21:57Z</time>
      </trkpt>
      <trkpt lat="49.16808" lon="-0.66228">
        <ele>105.8824463</ele>
        <time>2008-11-23T09:22:10Z</time>
      </trkpt>
      <trkpt lat="49.16852" lon="-0.66213">
        <ele>104.9210205</ele>
        <time>2008-11-23T09:22:23Z</time>
      </trkpt>
      <trkpt lat="49.16898" lon="-0.662">
        <ele>104.4404297</ele>
        <time>2008-11-23T09:22:37Z</time>
      </trkpt>
      <trkpt lat="49.16943" lon="-0.66188">
        <ele>104.4404297</ele>
        <time>2008-11-23T09:22:52Z</time>
      </trkpt>
      <trkpt lat="49.16954" lon="-0.66133">
        <ele>102.0371094</ele>
        <time>2008-11-23T09:23:13Z</time>
      </trkpt>
      <trkpt lat="49.16998" lon="-0.6612">
        <ele>98.6724854</ele>
        <time>2008-11-23T09:23:27Z</time>
      </trkpt>
      <trkpt lat="49.17045" lon="-0.66111">
        <ele>96.7498779</ele>
        <time>2008-11-23T09:23:40Z</time>
      </trkpt>
      <trkpt lat="49.17082" lon="-0.66085">
        <ele>92.4239502</ele>
        <time>2008-11-23T09:23:54Z</time>
      </trkpt>
      <trkpt lat="49.17076" lon="-0.6602">
        <ele>98.6724854</ele>
        <time>2008-11-23T09:24:27Z</time>
      </trkpt>
      <trkpt lat="49.17041" lon="-0.6601">
        <ele>99.6337891</ele>
        <time>2008-11-23T09:24:44Z</time>
      </trkpt>
      <trkpt lat="49.16996" lon="-0.66016">
        <ele>101.5563965</ele>
        <time>2008-11-23T09:24:56Z</time>
      </trkpt>
      <trkpt lat="49.16949" lon="-0.66016">
        <ele>103.9597168</ele>
        <time>2008-11-23T09:25:06Z</time>
      </trkpt>
      <trkpt lat="49.16905" lon="-0.66002">
        <ele>103.4790039</ele>
        <time>2008-11-23T09:25:15Z</time>
      </trkpt>
      <trkpt lat="49.1686" lon="-0.65989">
        <ele>104.9210205</ele>
        <time>2008-11-23T09:25:25Z</time>
      </trkpt>
      <trkpt lat="49.16813" lon="-0.65987">
        <ele>106.8436279</ele>
        <time>2008-11-23T09:25:36Z</time>
      </trkpt>
      <trkpt lat="49.16766" lon="-0.65989">
        <ele>108.7662354</ele>
        <time>2008-11-23T09:25:49Z</time>
      </trkpt>
      <trkpt lat="49.16718" lon="-0.65992">
        <ele>111.6502686</ele>
        <time>2008-11-23T09:26:02Z</time>
      </trkpt>
      <trkpt lat="49.16677" lon="-0.65968">
        <ele>113.572998</ele>
        <time>2008-11-23T09:26:15Z</time>
      </trkpt>
      <trkpt lat="49.16643" lon="-0.65914">
        <ele>115.0148926</ele>
        <time>2008-11-23T09:26:28Z</time>
      </trkpt>
      <trkpt lat="49.16614" lon="-0.65855">
        <ele>116.9375</ele>
        <time>2008-11-23T09:26:40Z</time>
      </trkpt>
      <trkpt lat="49.1659" lon="-0.65793">
        <ele>116.9375</ele>
        <time>2008-11-23T09:26:50Z</time>
      </trkpt>
      <trkpt lat="49.16569" lon="-0.65731">
        <ele>116.9375</ele>
        <time>2008-11-23T09:27:00Z</time>
      </trkpt>
      <trkpt lat="49.16548" lon="-0.65669">
        <ele>114.0535889</ele>
        <time>2008-11-23T09:27:09Z</time>
      </trkpt>
      <trkpt lat="49.16529" lon="-0.65607">
        <ele>109.7276611</ele>
        <time>2008-11-23T09:27:17Z</time>
      </trkpt>
      <trkpt lat="49.16509" lon="-0.65536">
        <ele>102.5177002</ele>
        <time>2008-11-23T09:27:26Z</time>
      </trkpt>
      <trkpt lat="49.16491" lon="-0.65474">
        <ele>99.6337891</ele>
        <time>2008-11-23T09:27:35Z</time>
      </trkpt>
      <trkpt lat="49.16471" lon="-0.65408">
        <ele>101.5563965</ele>
        <time>2008-11-23T09:27:45Z</time>
      </trkpt>
      <trkpt lat="49.16464" lon="-0.65338">
        <ele>104.9210205</ele>
        <time>2008-11-23T09:27:57Z</time>
      </trkpt>
      <trkpt lat="49.16462" lon="-0.65267">
        <ele>104.9210205</ele>
        <time>2008-11-23T09:28:09Z</time>
      </trkpt>
      <trkpt lat="49.16476" lon="-0.652">
        <ele>104.9210205</ele>
        <time>2008-11-23T09:28:23Z</time>
      </trkpt>
      <trkpt lat="49.16484" lon="-0.65128">
        <ele>106.8436279</ele>
        <time>2008-11-23T09:28:37Z</time>
      </trkpt>
      <trkpt lat="49.16478" lon="-0.65059">
        <ele>103.9597168</ele>
        <time>2008-11-23T09:28:49Z</time>
      </trkpt>
      <trkpt lat="49.16469" lon="-0.64987">
        <ele>105.4017334</ele>
        <time>2008-11-23T09:29:01Z</time>
      </trkpt>
      <trkpt lat="49.16508" lon="-0.64955">
        <ele>103.4790039</ele>
        <time>2008-11-23T09:29:14Z</time>
      </trkpt>
      <trkpt lat="49.16556" lon="-0.64936">
        <ele>102.5177002</ele>
        <time>2008-11-23T09:29:24Z</time>
      </trkpt>
      <trkpt lat="49.1659" lon="-0.64899">
        <ele>101.5563965</ele>
        <time>2008-11-23T09:29:34Z</time>
      </trkpt>
      <trkpt lat="49.16582" lon="-0.64828">
        <ele>100.114502</ele>
        <time>2008-11-23T09:29:42Z</time>
      </trkpt>
      <trkpt lat="49.16573" lon="-0.64757">
        <ele>97.7111816</ele>
        <time>2008-11-23T09:29:49Z</time>
      </trkpt>
      <trkpt lat="49.16565" lon="-0.64688">
        <ele>95.3077393</ele>
        <time>2008-11-23T09:29:55Z</time>
      </trkpt>
      <trkpt lat="49.16557" lon="-0.64617">
        <ele>92.904541</ele>
        <time>2008-11-23T09:30:01Z</time>
      </trkpt>
      <trkpt lat="49.16552" lon="-0.64549">
        <ele>91.9432373</ele>
        <time>2008-11-23T09:30:08Z</time>
      </trkpt>
      <trkpt lat="49.1652" lon="-0.64512">
        <ele>91.9432373</ele>
        <time>2008-11-23T09:30:18Z</time>
      </trkpt>
      <trkpt lat="49.16514" lon="-0.64449">
        <ele>90.9819336</ele>
        <time>2008-11-23T09:30:31Z</time>
      </trkpt>
      <trkpt lat="49.1651" lon="-0.64379">
        <ele>91.9432373</ele>
        <time>2008-11-23T09:30:45Z</time>
      </trkpt>
      <trkpt lat="49.1651" lon="-0.64305">
        <ele>93.8658447</ele>
        <time>2008-11-23T09:30:59Z</time>
      </trkpt>
      <trkpt lat="49.16515" lon="-0.64237">
        <ele>98.6724854</ele>
        <time>2008-11-23T09:31:13Z</time>
      </trkpt>
      <trkpt lat="49.16507" lon="-0.64168">
        <ele>107.8050537</ele>
        <time>2008-11-23T09:31:28Z</time>
      </trkpt>
      <trkpt lat="49.16491" lon="-0.64105">
        <ele>101.5563965</ele>
        <time>2008-11-23T09:31:42Z</time>
      </trkpt>
      <trkpt lat="49.16473" lon="-0.6404">
        <ele>99.6337891</ele>
        <time>2008-11-23T09:31:55Z</time>
      </trkpt>
      <trkpt lat="49.16464" lon="-0.6397">
        <ele>101.0756836</ele>
        <time>2008-11-23T09:32:08Z</time>
      </trkpt>
      <trkpt lat="49.16457" lon="-0.63901">
        <ele>101.0756836</ele>
        <time>2008-11-23T09:32:20Z</time>
      </trkpt>
      <trkpt lat="49.16447" lon="-0.63829">
        <ele>101.5563965</ele>
        <time>2008-11-23T09:32:33Z</time>
      </trkpt>
      <trkpt lat="49.16439" lon="-0.63759">
        <ele>101.5563965</ele>
        <time>2008-11-23T09:32:45Z</time>
      </trkpt>
      <trkpt lat="49.1643" lon="-0.6369">
        <ele>101.0756836</ele>
        <time>2008-11-23T09:32:59Z</time>
      </trkpt>
      <trkpt lat="49.16418" lon="-0.63622">
        <ele>100.5950928</ele>
        <time>2008-11-23T09:33:13Z</time>
      </trkpt>
      <trkpt lat="49.16408" lon="-0.63554">
        <ele>100.114502</ele>
        <time>2008-11-23T09:33:26Z</time>
      </trkpt>
      <trkpt lat="49.16398" lon="-0.63482">
        <ele>99.6337891</ele>
        <time>2008-11-23T09:33:39Z</time>
      </trkpt>
      <trkpt lat="49.16399" lon="-0.63411">
        <ele>99.6337891</ele>
        <time>2008-11-23T09:33:51Z</time>
      </trkpt>
      <trkpt lat="49.16408" lon="-0.63344">
        <ele>102.5177002</ele>
        <time>2008-11-23T09:34:07Z</time>
      </trkpt>
      <trkpt lat="49.16362" lon="-0.63334">
        <ele>102.5177002</ele>
        <time>2008-11-23T09:34:22Z</time>
      </trkpt>
      <trkpt lat="49.16317" lon="-0.63325">
        <ele>102.0371094</ele>
        <time>2008-11-23T09:34:34Z</time>
      </trkpt>
      <trkpt lat="49.1627" lon="-0.63316">
        <ele>101.5563965</ele>
        <time>2008-11-23T09:34:46Z</time>
      </trkpt>
      <trkpt lat="49.16224" lon="-0.63306">
        <ele>102.0371094</ele>
        <time>2008-11-23T09:34:58Z</time>
      </trkpt>
      <trkpt lat="49.16178" lon="-0.63294">
        <ele>103.4790039</ele>
        <time>2008-11-23T09:35:10Z</time>
      </trkpt>
      <trkpt lat="49.1613" lon="-0.63283">
        <ele>105.4017334</ele>
        <time>2008-11-23T09:35:23Z</time>
      </trkpt>
      <trkpt lat="49.16084" lon="-0.63278">
        <ele>104.4404297</ele>
        <time>2008-11-23T09:35:35Z</time>
      </trkpt>
      <trkpt lat="49.16039" lon="-0.63282">
        <ele>104.4404297</ele>
        <time>2008-11-23T09:35:45Z</time>
      </trkpt>
      <trkpt lat="49.15992" lon="-0.63284">
        <ele>104.4404297</ele>
        <time>2008-11-23T09:35:55Z</time>
      </trkpt>
      <trkpt lat="49.15946" lon="-0.63268">
        <ele>104.9210205</ele>
        <time>2008-11-23T09:36:05Z</time>
      </trkpt>
      <trkpt lat="49.15908" lon="-0.63229">
        <ele>103.9597168</ele>
        <time>2008-11-23T09:36:16Z</time>
      </trkpt>
      <trkpt lat="49.15866" lon="-0.63187">
        <ele>102.5177002</ele>
        <time>2008-11-23T09:36:26Z</time>
      </trkpt>
      <trkpt lat="49.15829" lon="-0.63145">
        <ele>100.114502</ele>
        <time>2008-11-23T09:36:33Z</time>
      </trkpt>
      <trkpt lat="49.15795" lon="-0.63104">
        <ele>97.7111816</ele>
        <time>2008-11-23T09:36:46Z</time>
      </trkpt>
      <trkpt lat="49.15756" lon="-0.63061">
        <ele>95.7884521</ele>
        <time>2008-11-23T09:36:56Z</time>
      </trkpt>
      <trkpt lat="49.15716" lon="-0.63019">
        <ele>90.0206299</ele>
        <time>2008-11-23T09:37:04Z</time>
      </trkpt>
      <trkpt lat="49.15671" lon="-0.62976">
        <ele>85.2139893</ele>
        <time>2008-11-23T09:37:11Z</time>
      </trkpt>
      <trkpt lat="49.1563" lon="-0.62946">
        <ele>81.3687744</ele>
        <time>2008-11-23T09:37:17Z</time>
      </trkpt>
      <trkpt lat="49.15588" lon="-0.62918">
        <ele>78.4847412</ele>
        <time>2008-11-23T09:37:25Z</time>
      </trkpt>
      <trkpt lat="49.15562" lon="-0.62855">
        <ele>79.4460449</ele>
        <time>2008-11-23T09:37:34Z</time>
      </trkpt>
      <trkpt lat="49.1555" lon="-0.62793">
        <ele>80.8881836</ele>
        <time>2008-11-23T09:38:01Z</time>
      </trkpt>
      <trkpt lat="49.15521" lon="-0.62739">
        <ele>79.9266357</ele>
        <time>2008-11-23T09:38:14Z</time>
      </trkpt>
      <trkpt lat="49.15484" lon="-0.62696">
        <ele>78.0040283</ele>
        <time>2008-11-23T09:38:24Z</time>
      </trkpt>
      <trkpt lat="49.15445" lon="-0.62659">
        <ele>72.7169189</ele>
        <time>2008-11-23T09:38:33Z</time>
      </trkpt>
      <trkpt lat="49.15404" lon="-0.62618">
        <ele>70.7941895</ele>
        <time>2008-11-23T09:38:42Z</time>
      </trkpt>
      <trkpt lat="49.15383" lon="-0.62555">
        <ele>68.871582</ele>
        <time>2008-11-23T09:38:50Z</time>
      </trkpt>
      <trkpt lat="49.15363" lon="-0.62487">
        <ele>68.3908691</ele>
        <time>2008-11-23T09:38:58Z</time>
      </trkpt>
      <trkpt lat="49.15345" lon="-0.62414">
        <ele>68.3908691</ele>
        <time>2008-11-23T09:39:06Z</time>
      </trkpt>
      <trkpt lat="49.15323" lon="-0.62347">
        <ele>66.4682617</ele>
        <time>2008-11-23T09:39:14Z</time>
      </trkpt>
      <trkpt lat="49.15298" lon="-0.62297">
        <ele>60.7003174</ele>
        <time>2008-11-23T09:39:26Z</time>
      </trkpt>
      <trkpt lat="49.15265" lon="-0.62342">
        <ele>63.5843506</ele>
        <time>2008-11-23T09:39:39Z</time>
      </trkpt>
      <trkpt lat="49.15231" lon="-0.62391">
        <ele>65.9876709</ele>
        <time>2008-11-23T09:39:52Z</time>
      </trkpt>
      <trkpt lat="49.15196" lon="-0.62441">
        <ele>66.9489746</ele>
        <time>2008-11-23T09:40:04Z</time>
      </trkpt>
      <trkpt lat="49.15156" lon="-0.62483">
        <ele>67.9102783</ele>
        <time>2008-11-23T09:40:15Z</time>
      </trkpt>
      <trkpt lat="49.15118" lon="-0.6252">
        <ele>69.3522949</ele>
        <time>2008-11-23T09:40:25Z</time>
      </trkpt>
      <trkpt lat="49.15077" lon="-0.62561">
        <ele>69.8328857</ele>
        <time>2008-11-23T09:40:35Z</time>
      </trkpt>
      <trkpt lat="49.15038" lon="-0.62601">
        <ele>69.3522949</ele>
        <time>2008-11-23T09:40:45Z</time>
      </trkpt>
      <trkpt lat="49.14997" lon="-0.6264">
        <ele>68.871582</ele>
        <time>2008-11-23T09:40:55Z</time>
      </trkpt>
      <trkpt lat="49.14955" lon="-0.62682">
        <ele>68.871582</ele>
        <time>2008-11-23T09:41:05Z</time>
      </trkpt>
      <trkpt lat="49.14914" lon="-0.62719">
        <ele>67.9102783</ele>
        <time>2008-11-23T09:41:15Z</time>
      </trkpt>
      <trkpt lat="49.14874" lon="-0.62748">
        <ele>66.9489746</ele>
        <time>2008-11-23T09:41:24Z</time>
      </trkpt>
      <trkpt lat="49.14827" lon="-0.62772">
        <ele>65.0263672</ele>
        <time>2008-11-23T09:41:33Z</time>
      </trkpt>
      <trkpt lat="49.14782" lon="-0.62792">
        <ele>63.5843506</ele>
        <time>2008-11-23T09:41:41Z</time>
      </trkpt>
      <trkpt lat="49.14743" lon="-0.62751">
        <ele>63.1036377</ele>
        <time>2008-11-23T09:41:51Z</time>
      </trkpt>
      <trkpt lat="49.14708" lon="-0.62703">
        <ele>64.0650635</ele>
        <time>2008-11-23T09:42:00Z</time>
      </trkpt>
      <trkpt lat="49.14663" lon="-0.62679">
        <ele>65.0263672</ele>
        <time>2008-11-23T09:42:09Z</time>
      </trkpt>
      <trkpt lat="49.14617" lon="-0.62681">
        <ele>68.3908691</ele>
        <time>2008-11-23T09:42:19Z</time>
      </trkpt>
      <trkpt lat="49.14569" lon="-0.62689">
        <ele>68.871582</ele>
        <time>2008-11-23T09:42:29Z</time>
      </trkpt>
      <trkpt lat="49.14562" lon="-0.6276">
        <ele>69.3522949</ele>
        <time>2008-11-23T09:42:39Z</time>
      </trkpt>
      <trkpt lat="49.14542" lon="-0.62821">
        <ele>69.3522949</ele>
        <time>2008-11-23T09:42:50Z</time>
      </trkpt>
      <trkpt lat="49.14521" lon="-0.62888">
        <ele>69.3522949</ele>
        <time>2008-11-23T09:43:03Z</time>
      </trkpt>
      <trkpt lat="49.14484" lon="-0.62934">
        <ele>72.7169189</ele>
        <time>2008-11-23T09:43:14Z</time>
      </trkpt>
      <trkpt lat="49.14442" lon="-0.62975">
        <ele>74.6395264</ele>
        <time>2008-11-23T09:43:25Z</time>
      </trkpt>
      <trkpt lat="49.14414" lon="-0.63028">
        <ele>72.7169189</ele>
        <time>2008-11-23T09:43:34Z</time>
      </trkpt>
      <trkpt lat="49.14373" lon="-0.63006">
        <ele>70.7941895</ele>
        <time>2008-11-23T09:43:42Z</time>
      </trkpt>
      <trkpt lat="49.14335" lon="-0.62966">
        <ele>71.7554932</ele>
        <time>2008-11-23T09:43:51Z</time>
      </trkpt>
      <trkpt lat="49.14291" lon="-0.62941">
        <ele>72.2362061</ele>
        <time>2008-11-23T09:44:02Z</time>
      </trkpt>
      <trkpt lat="49.14267" lon="-0.62998">
        <ele>71.2749023</ele>
        <time>2008-11-23T09:44:12Z</time>
      </trkpt>
      <trkpt lat="49.14251" lon="-0.63068">
        <ele>72.2362061</ele>
        <time>2008-11-23T09:44:23Z</time>
      </trkpt>
      <trkpt lat="49.14231" lon="-0.6313">
        <ele>75.6008301</ele>
        <time>2008-11-23T09:44:35Z</time>
      </trkpt>
      <trkpt lat="49.14211" lon="-0.63192">
        <ele>78.4847412</ele>
        <time>2008-11-23T09:44:48Z</time>
      </trkpt>
      <trkpt lat="49.14207" lon="-0.6321">
        <ele>78.9654541</ele>
        <time>2008-11-23T09:44:52Z</time>
      </trkpt>
    </trkseg>
  </trk>
</gpx>